createdAt,value
2023-02-03T00:01:04.429Z,5.00
2023-02-03T00:03:34.447Z,5.60
2023-02-03T00:06:02.838Z,6.00
2023-02-03T00:08:31.494Z,5.90
2023-02-03T00:11:00.113Z,5.40
2023-02-03T00:13:28.654Z,6.10
2023-02-03T00:15:57.145Z,5.20
2023-02-03T00:18:25.593Z,6.50
2023-02-03T00:20:54.660Z,5.20
2023-02-03T00:23:23.172Z,5.70
2023-02-03T00:25:52.278Z,5.40
2023-02-03T00:28:20.810Z,6.20
2023-02-03T00:30:49.883Z,5.10
2023-02-03T00:33:18.554Z,5.60
2023-02-03T00:35:46.990Z,6.50
2023-02-03T00:38:15.759Z,6.10
2023-02-03T00:40:54.732Z,5.70
2023-02-03T00:43:24.813Z,6.50
2023-02-03T00:45:54.724Z,7.10
2023-02-03T00:48:23.041Z,5.60
2023-02-03T00:50:51.509Z,6.30
2023-02-03T00:53:19.772Z,6.40
2023-02-03T00:55:48.127Z,6.30
2023-02-03T00:58:16.654Z,6.00
2023-02-03T01:00:45.206Z,5.20
2023-02-03T01:03:13.951Z,6.50
2023-02-03T01:05:42.354Z,6.40
2023-02-03T01:08:10.829Z,6.10
2023-02-03T01:10:39.497Z,7.10
2023-02-03T01:13:10.397Z,6.80
2023-02-03T01:15:45.948Z,6.80
2023-02-03T01:18:14.391Z,7.60
2023-02-03T01:20:43.384Z,6.40
2023-02-03T01:23:11.601Z,6.50
2023-02-03T01:25:44.665Z,6.80
2023-02-03T01:28:13.940Z,6.50
2023-02-03T01:30:42.383Z,6.90
2023-02-03T01:33:10.933Z,7.10
2023-02-03T01:35:39.355Z,7.50
2023-02-03T01:38:07.838Z,7.30
2023-02-03T01:40:43.109Z,7.40
2023-02-03T01:43:11.921Z,6.50
2023-02-03T01:45:42.227Z,7.40
2023-02-03T01:48:10.763Z,6.30
2023-02-03T01:50:39.430Z,6.80
2023-02-03T01:53:09.186Z,6.80
2023-02-03T01:55:45.844Z,7.30
2023-02-03T01:58:26.117Z,6.40
2023-02-03T02:00:57.679Z,7.90
2023-02-03T02:03:44.639Z,7.20
2023-02-03T02:06:14.218Z,7.60
2023-02-03T02:08:45.044Z,7.10
2023-02-03T02:11:16.251Z,7.00
2023-02-03T02:13:44.789Z,7.20
2023-02-03T02:16:42.372Z,6.00
2023-02-03T02:19:19.984Z,7.00
2023-02-03T02:21:51.743Z,8.20
2023-02-03T02:24:32.574Z,6.90
2023-02-03T02:27:29.391Z,7.40
2023-02-03T02:30:36.849Z,7.60
2023-02-03T02:33:48.309Z,7.90
2023-02-03T02:36:32.632Z,7.70
2023-02-03T02:39:07.031Z,8.90
2023-02-03T02:41:44.442Z,7.80
2023-02-03T02:44:23.970Z,8.90
2023-02-03T02:46:57.452Z,9.00
2023-02-03T02:49:58.854Z,9.00
2023-02-03T02:52:29.329Z,8.90
2023-02-03T02:55:00.376Z,8.10
2023-02-03T02:57:28.842Z,9.90
2023-02-03T02:59:58.231Z,8.30
2023-02-03T03:02:36.152Z,7.60
2023-02-03T03:05:05.901Z,8.50
2023-02-03T03:07:40.094Z,8.40
2023-02-03T03:10:10.636Z,8.40
2023-02-03T03:12:41.788Z,7.80
2023-02-03T03:15:20.146Z,8.40
2023-02-03T03:18:13.389Z,8.50
2023-02-03T03:20:44.515Z,8.50
2023-02-03T03:23:19.788Z,8.20
2023-02-03T03:25:50.090Z,8.90
2023-02-03T03:28:25.002Z,9.10
2023-02-03T03:30:53.577Z,8.70
2023-02-03T03:33:22.446Z,9.20
2023-02-03T03:35:55.990Z,9.30
2023-02-03T03:41:08.940Z,9.70
2023-02-03T03:43:39.216Z,10.10
2023-02-03T03:46:14.003Z,9.40
2023-02-03T03:48:52.413Z,8.60
2023-02-03T03:51:25.894Z,10.50
2023-02-03T03:53:54.176Z,9.60
2023-02-03T03:56:26.275Z,10.90
2023-02-03T03:58:55.142Z,10.60
2023-02-03T04:01:23.615Z,11.50
2023-02-03T04:04:00.583Z,11.90
2023-02-03T04:06:29.194Z,11.40
2023-02-03T04:08:58.073Z,11.30
2023-02-03T04:11:44.866Z,11.80
2023-02-03T04:14:13.291Z,12.10
2023-02-03T04:16:41.731Z,10.00
2023-02-03T04:19:10.014Z,11.00
2023-02-03T04:21:41.415Z,10.30
2023-02-03T04:24:09.958Z,10.80
2023-02-03T04:26:38.346Z,9.20
2023-02-03T04:29:06.935Z,9.70
2023-02-03T04:31:35.279Z,11.50
2023-02-03T04:34:03.852Z,8.90
2023-02-03T04:36:35.132Z,10.00
2023-02-03T04:39:03.738Z,9.70
2023-02-03T04:41:33.020Z,10.10
2023-02-03T04:44:01.396Z,9.20
2023-02-03T04:46:29.776Z,10.10
2023-02-03T04:48:58.363Z,11.90
2023-02-03T04:51:26.697Z,10.70
2023-02-03T04:53:55.154Z,11.00
2023-02-03T04:56:23.483Z,10.90
2023-02-03T04:58:52.260Z,12.10
2023-02-03T05:01:20.953Z,11.70
2023-02-03T05:04:04.463Z,11.50
2023-02-03T05:06:33.084Z,11.00
2023-02-03T05:09:01.404Z,11.10
2023-02-03T05:11:29.801Z,9.50
2023-02-03T05:13:58.473Z,12.10
2023-02-03T05:16:27.313Z,11.30
2023-02-03T05:18:55.863Z,12.20
2023-02-03T05:21:24.710Z,11.10
2023-02-03T05:23:53.166Z,12.50
2023-02-03T05:26:21.595Z,14.50
2023-02-03T05:28:51.084Z,13.30
2023-02-03T05:31:20.853Z,14.50
2023-02-03T05:33:49.262Z,15.00
2023-02-03T05:36:17.678Z,14.00
2023-02-03T05:38:46.305Z,16.10
2023-02-03T05:41:33.174Z,16.30
2023-02-03T05:44:01.646Z,16.30
2023-02-03T05:46:30.492Z,18.00
2023-02-03T05:48:58.832Z,16.00
2023-02-03T05:51:27.224Z,15.60
2023-02-03T05:53:57.315Z,13.90
2023-02-03T05:56:26.540Z,14.50
2023-02-03T05:58:55.498Z,13.90
2023-02-03T06:01:24.019Z,15.40
2023-02-03T06:03:52.582Z,12.90
2023-02-03T06:06:21.143Z,13.00
2023-02-03T06:08:56.408Z,14.00
2023-02-03T06:11:27.244Z,13.40
2023-02-03T06:13:58.699Z,11.40
2023-02-03T06:16:27.851Z,10.90
2023-02-03T06:18:59.749Z,10.70
2023-02-03T06:21:28.386Z,9.80
2023-02-03T06:23:57.072Z,11.50
2023-02-03T06:26:25.652Z,11.40
2023-02-03T06:28:53.981Z,10.90
2023-02-03T06:31:22.694Z,10.30
2023-02-03T06:33:51.006Z,10.50
2023-02-03T06:36:19.227Z,11.30
2023-02-03T06:38:47.652Z,10.10
2023-02-03T06:41:16.952Z,9.40
2023-02-03T06:43:45.393Z,9.40
2023-02-03T06:46:13.927Z,9.00
2023-02-03T06:48:42.296Z,9.90
2023-02-03T06:51:11.183Z,8.90
2023-02-03T06:53:39.555Z,11.90
2023-02-03T06:56:08.220Z,11.30
2023-02-03T06:58:36.527Z,14.90
2023-02-03T07:01:05.137Z,13.50
2023-02-03T07:03:33.625Z,14.20
2023-02-03T07:06:02.298Z,14.50
2023-02-03T07:08:30.780Z,13.80
2023-02-03T07:10:59.026Z,13.60
2023-02-03T07:13:27.657Z,13.00
2023-02-03T07:15:56.194Z,13.30
2023-02-03T07:21:15.050Z,11.10
2023-02-03T07:23:43.751Z,12.90
2023-02-03T07:26:12.008Z,12.10
2023-02-03T07:28:40.484Z,13.90
2023-02-03T07:31:10.644Z,13.20
2023-02-03T07:33:40.027Z,11.60
2023-02-03T07:36:09.092Z,9.70
2023-02-03T07:38:40.622Z,9.00
2023-02-03T07:41:08.856Z,8.10
2023-02-03T07:43:37.787Z,8.40
2023-02-03T07:46:06.227Z,8.60
2023-02-03T07:48:35.792Z,6.80
2023-02-03T07:51:04.307Z,7.70
2023-02-03T07:53:32.777Z,7.60
2023-02-03T07:56:02.305Z,5.80
2023-02-03T07:58:31.238Z,7.40
2023-02-03T08:00:59.721Z,5.80
2023-02-03T08:03:28.101Z,7.10
2023-02-03T08:05:56.492Z,6.80
2023-02-03T08:08:24.802Z,7.30
2023-02-03T08:10:56.206Z,7.20
2023-02-03T08:13:24.483Z,6.20
2023-02-03T08:15:53.009Z,5.90
2023-02-03T08:18:21.523Z,5.80
2023-02-03T08:20:50.283Z,5.60
2023-02-03T08:23:18.646Z,6.00
2023-02-03T08:25:51.312Z,5.60
2023-02-03T08:30:49.002Z,6.00
2023-02-03T08:33:20.216Z,6.10
2023-02-03T08:35:53.098Z,5.40
2023-02-03T08:38:22.089Z,5.70
2023-02-03T08:40:50.540Z,5.00
2023-02-03T08:43:19.489Z,5.60
2023-02-03T08:45:48.006Z,5.30
2023-02-03T08:48:16.352Z,5.80
2023-02-03T08:50:52.104Z,5.80
2023-02-03T08:53:20.498Z,5.50
2023-02-03T08:55:48.892Z,5.90
2023-02-03T08:58:17.979Z,6.00
2023-02-03T09:00:50.137Z,5.90
2023-02-03T09:03:18.768Z,6.10
2023-02-03T09:05:47.215Z,5.30
2023-02-03T09:08:17.950Z,5.20
2023-02-03T09:10:46.329Z,5.70
2023-02-03T09:13:14.724Z,5.50
2023-02-03T09:15:43.483Z,5.50
2023-02-03T09:18:11.885Z,4.30
2023-02-03T09:20:41.572Z,4.90
2023-02-03T09:23:10.394Z,4.80
2023-02-03T09:25:39.480Z,4.90
2023-02-03T09:28:08.338Z,4.90
2023-02-03T09:30:36.973Z,5.50
2023-02-03T09:33:06.251Z,5.70
2023-02-03T09:35:34.964Z,5.00
2023-02-03T09:38:03.339Z,5.20
2023-02-03T09:40:34.289Z,5.90
2023-02-03T09:43:12.969Z,5.40
2023-02-03T09:45:41.404Z,5.40
2023-02-03T09:48:16.662Z,5.20
2023-02-03T09:50:45.439Z,5.30
2023-02-03T09:53:22.915Z,5.80
2023-02-03T09:55:51.336Z,4.60
2023-02-03T09:58:23.137Z,5.10
2023-02-03T10:01:02.657Z,5.30
2023-02-03T10:03:38.532Z,5.00
2023-02-03T10:06:18.927Z,5.20
2023-02-03T10:09:18.744Z,5.60
2023-02-03T13:20:18.361Z,3.90
2023-02-03T13:22:47.312Z,3.30
2023-02-03T13:25:26.586Z,3.10
2023-02-03T13:28:38.493Z,3.40
2023-02-03T13:31:43.443Z,4.00
2023-02-03T13:34:30.425Z,2.80
2023-02-03T13:37:28.031Z,3.20
2023-02-03T13:40:11.718Z,4.10
2023-02-03T13:42:48.409Z,4.40
2023-02-03T13:45:32.935Z,3.50
2023-02-03T13:48:24.977Z,3.40
2023-02-03T13:51:07.909Z,3.10
2023-02-03T13:53:40.073Z,3.40
2023-02-03T13:56:23.874Z,3.40
2023-02-03T13:59:02.792Z,3.50
2023-02-03T14:01:36.643Z,3.70
2023-02-03T14:04:26.561Z,4.60
2023-02-03T14:06:59.234Z,3.20
2023-02-03T14:09:31.187Z,3.40
2023-02-03T14:12:37.738Z,4.00
2023-02-03T14:15:25.976Z,4.00
2023-02-03T14:18:00.899Z,3.70
2023-02-03T14:20:29.790Z,3.10
2023-02-03T14:23:02.069Z,3.80
2023-02-03T14:25:31.728Z,3.70
2023-02-03T14:28:01.218Z,3.60
2023-02-03T14:30:31.310Z,3.70
2023-02-03T14:33:01.637Z,3.60
2023-02-03T14:35:34.254Z,3.40
2023-02-03T14:38:07.827Z,3.70
2023-02-03T14:40:50.206Z,4.10
2023-02-03T14:43:25.379Z,3.60
2023-02-03T14:46:01.858Z,3.40
2023-02-03T14:48:49.643Z,3.30
2023-02-03T14:51:42.104Z,3.70
2023-02-03T14:54:35.456Z,3.90
2023-02-03T14:57:17.435Z,4.00
2023-02-03T15:00:06.098Z,3.80
2023-02-03T15:02:36.698Z,4.20
2023-02-03T15:05:14.469Z,5.00
2023-02-03T15:07:46.776Z,3.90
2023-02-03T15:10:21.927Z,4.20
2023-02-03T15:12:56.059Z,3.70
2023-02-03T15:15:33.590Z,4.20
2023-02-03T15:18:21.579Z,4.30
2023-02-03T15:20:55.590Z,3.50
2023-02-03T15:23:48.430Z,3.40
2023-02-03T15:26:21.305Z,3.20
2023-02-03T15:29:01.362Z,3.90
2023-02-03T15:31:37.212Z,4.40
2023-02-03T15:34:14.465Z,3.10
2023-02-03T15:36:46.070Z,3.40
2023-02-03T15:39:39.264Z,3.70
2023-02-03T15:42:10.891Z,3.80
2023-02-03T15:44:42.271Z,3.50
2023-02-03T15:47:23.111Z,4.00
2023-02-03T15:50:18.000Z,3.90
2023-02-03T15:52:47.406Z,3.90
2023-02-03T15:55:54.927Z,3.70
2023-02-03T15:58:28.188Z,3.70
2023-02-03T16:01:01.565Z,3.60
2023-02-03T16:03:41.611Z,3.70
2023-02-03T16:06:25.378Z,3.90
2023-02-03T16:08:55.020Z,4.40
2023-02-03T16:11:28.807Z,4.60
2023-02-03T16:14:02.054Z,4.30
2023-02-03T16:17:05.772Z,4.70
2023-02-03T16:19:40.545Z,4.70
2023-02-03T16:22:28.738Z,4.60
2023-02-03T16:24:57.554Z,4.60
2023-02-03T16:27:27.323Z,5.40
2023-02-03T16:30:26.341Z,5.20
2023-02-03T16:33:35.486Z,5.40
2023-02-03T16:36:33.703Z,4.80
2023-02-03T16:39:22.187Z,5.80
2023-02-03T16:42:09.692Z,5.20
2023-02-03T16:44:57.690Z,5.90
2023-02-03T16:47:47.446Z,6.50
2023-02-03T16:50:39.147Z,7.40
2023-02-03T16:53:14.895Z,7.20
2023-02-03T16:55:44.840Z,7.20
2023-02-03T16:58:13.295Z,6.90
2023-02-03T17:00:42.817Z,7.80
2023-02-03T17:03:20.016Z,9.60
2023-02-03T17:05:49.013Z,8.50
2023-02-03T17:08:20.588Z,9.70
2023-02-03T17:10:49.914Z,11.30
2023-02-03T17:13:20.497Z,13.00
2023-02-03T17:15:52.919Z,12.70
2023-02-03T17:18:21.770Z,14.70
2023-02-03T17:20:51.142Z,18.00
2023-02-03T17:23:19.842Z,19.00
2023-02-03T17:25:50.210Z,17.70
2023-02-03T17:28:20.364Z,19.80
2023-02-03T17:31:04.375Z,21.40
2023-02-03T17:33:36.458Z,19.50
2023-02-03T17:36:08.467Z,20.10
2023-02-03T17:55:25.696Z,19.60
2023-02-03T17:57:55.313Z,20.60
2023-02-03T18:00:24.127Z,21.10
2023-02-03T18:02:55.066Z,20.10
2023-02-03T18:05:23.979Z,20.30
2023-02-03T18:07:56.734Z,20.90
2023-02-03T18:10:26.071Z,20.00
2023-02-03T18:12:55.962Z,21.80
2023-02-03T18:15:25.461Z,24.50
2023-02-03T18:17:56.376Z,23.50
2023-02-03T18:20:26.415Z,23.40
2023-02-03T18:22:58.452Z,21.50
2023-02-03T18:25:27.900Z,22.30
2023-02-03T18:27:58.038Z,21.50
2023-02-03T18:30:26.935Z,21.60
2023-02-03T18:32:55.980Z,21.00
2023-02-03T18:35:26.533Z,21.10
2023-02-03T18:37:56.396Z,21.00
2023-02-03T18:40:25.644Z,18.50
2023-02-03T18:42:56.485Z,21.40
2023-02-03T18:45:25.559Z,21.40
2023-02-03T18:47:55.404Z,18.30
2023-02-03T18:50:26.368Z,18.50
2023-02-03T18:52:55.535Z,18.70
2023-02-03T18:55:24.647Z,20.20
2023-02-03T18:57:53.120Z,19.40
2023-02-03T19:00:22.167Z,17.10
2023-02-03T19:02:54.772Z,17.70
2023-02-03T19:05:24.466Z,16.50
2023-02-03T19:07:53.379Z,15.80
2023-02-03T19:10:23.103Z,18.10
2023-02-03T19:12:53.148Z,19.20
2023-02-03T19:15:22.402Z,19.80
2023-02-03T19:17:52.627Z,18.80
2023-02-03T19:20:21.301Z,18.40
2023-02-03T19:22:50.618Z,19.70
2023-02-03T19:25:19.931Z,18.60
2023-02-03T19:27:51.371Z,17.60
2023-02-03T19:30:22.369Z,19.50
2023-02-03T19:32:51.170Z,18.90
2023-02-03T19:35:20.617Z,18.60
2023-02-03T19:37:49.630Z,19.40
2023-02-03T19:40:18.778Z,19.00
2023-02-03T19:42:50.516Z,18.70
2023-02-03T19:45:20.324Z,19.80
2023-02-03T19:47:49.951Z,19.00
2023-02-03T19:50:19.290Z,18.90
2023-02-03T19:52:49.299Z,18.80
2023-02-03T19:55:18.411Z,18.20
2023-02-03T19:57:47.503Z,16.50
2023-02-03T20:00:17.149Z,18.10
2023-02-03T20:02:47.554Z,17.00
2023-02-03T20:05:17.661Z,18.10
2023-02-03T20:07:46.277Z,17.80
2023-02-03T20:10:16.024Z,18.90
2023-02-03T20:12:50.943Z,19.50
2023-02-03T20:15:19.549Z,18.80
2023-02-03T20:17:51.932Z,19.20
2023-02-03T20:20:21.611Z,18.40
2023-02-03T20:22:51.438Z,19.60
2023-02-03T20:25:21.552Z,18.60
2023-02-03T20:27:52.700Z,17.80
2023-02-03T20:30:22.725Z,18.20
2023-02-03T20:32:51.127Z,18.50
2023-02-03T20:35:20.288Z,18.10
2023-02-03T20:37:49.571Z,18.20
2023-02-03T20:40:19.094Z,18.40
2023-02-03T20:42:49.747Z,18.20
2023-02-03T20:45:20.135Z,19.60
2023-02-03T20:47:51.264Z,19.70
2023-02-03T20:50:25.044Z,19.70
2023-02-03T20:52:55.716Z,19.50
2023-02-03T20:55:25.189Z,19.50
2023-02-03T20:57:57.842Z,20.00
2023-02-03T21:00:27.789Z,19.80
2023-02-03T21:03:16.701Z,19.90
2023-02-03T21:05:48.196Z,21.10
2023-02-03T21:08:18.879Z,20.40
2023-02-03T21:10:48.138Z,20.50
2023-02-03T21:13:24.591Z,20.30
2023-02-03T21:15:59.817Z,21.30
2023-02-03T21:18:39.854Z,20.50
2023-02-03T21:21:20.456Z,21.70
2023-02-03T21:23:51.756Z,22.00
2023-02-03T21:26:24.103Z,23.90
2023-02-03T21:28:54.591Z,23.50
2023-02-03T21:31:28.687Z,22.60
2023-02-03T21:34:04.797Z,22.80
2023-02-03T21:36:36.072Z,25.00
2023-02-03T21:39:12.483Z,23.30
2023-02-03T21:41:41.226Z,23.10
2023-02-03T21:44:25.140Z,24.90
2023-02-03T21:46:54.491Z,24.10
2023-02-03T21:49:24.412Z,22.60
2023-02-03T21:51:54.498Z,23.30
2023-02-03T21:54:33.202Z,23.60
2023-02-03T21:57:02.307Z,21.80
2023-02-03T21:59:38.901Z,24.40
2023-02-03T22:02:44.174Z,21.50
2023-02-03T22:05:15.519Z,22.20
2023-02-03T22:07:44.819Z,21.30
2023-02-03T22:10:14.687Z,20.90
2023-02-03T22:12:43.378Z,20.90
2023-02-03T22:15:13.408Z,22.40
2023-02-03T22:17:44.828Z,21.90
2023-02-03T22:20:15.482Z,22.40
2023-02-03T22:22:45.608Z,24.00
2023-02-03T22:25:14.882Z,23.20
2023-02-03T22:27:43.306Z,24.20
2023-02-03T22:30:16.099Z,25.30
2023-02-03T22:32:46.141Z,26.70
2023-02-03T22:35:15.618Z,24.60
2023-02-03T22:37:44.782Z,24.90
2023-02-03T22:40:14.009Z,26.10
2023-02-03T22:42:44.078Z,25.60
2023-02-03T22:45:12.598Z,24.50
2023-02-03T22:47:42.709Z,25.10
2023-02-03T22:50:16.373Z,25.80
2023-02-03T22:52:47.250Z,23.30
2023-02-03T22:55:18.937Z,24.30
2023-02-03T22:57:48.714Z,22.00
2023-02-03T23:00:21.932Z,22.20
2023-02-03T23:02:53.238Z,20.80
2023-02-03T23:05:24.424Z,22.10
2023-02-03T23:07:54.020Z,22.00
2023-02-03T23:10:25.228Z,20.70
2023-02-03T23:12:56.612Z,18.20
2023-02-03T23:15:25.792Z,19.80
2023-02-03T23:17:58.682Z,19.60
2023-02-03T23:20:29.874Z,17.90
2023-02-03T23:22:59.097Z,18.70
2023-02-03T23:25:29.307Z,19.70
2023-02-03T23:27:58.601Z,17.30
2023-02-03T23:30:27.954Z,19.00
2023-02-03T23:32:57.026Z,19.10
2023-02-03T23:35:45.026Z,19.20
2023-02-03T23:38:14.648Z,18.70
2023-02-03T23:46:16.572Z,18.70
2023-02-03T23:48:45.600Z,17.00
2023-02-03T23:51:14.513Z,17.80
2023-02-03T23:53:43.892Z,15.70
2023-02-03T23:56:15.409Z,15.10
2023-02-03T23:58:44.756Z,12.90
